createdAt,value
2023-02-16T00:01:28.841Z,8.10
2023-02-16T00:03:56.483Z,8.10
2023-02-16T00:06:24.314Z,8.10
2023-02-16T00:08:52.328Z,8.10
2023-02-16T00:11:40.525Z,8.10
2023-02-16T00:14:08.663Z,8.00
2023-02-16T00:16:35.791Z,8.00
2023-02-16T00:19:05.949Z,8.00
2023-02-16T00:21:32.743Z,7.90
2023-02-16T00:23:59.601Z,7.90
2023-02-16T00:26:27.622Z,7.80
2023-02-16T00:28:55.414Z,7.80
2023-02-16T00:31:26.764Z,7.70
2023-02-16T00:33:53.931Z,7.70
2023-02-16T00:36:21.023Z,7.70
2023-02-16T00:38:47.847Z,7.70
2023-02-16T00:41:36.006Z,7.70
2023-02-16T00:44:05.569Z,7.70
2023-02-16T00:46:32.635Z,7.60
2023-02-16T00:48:59.495Z,7.60
2023-02-16T00:51:26.930Z,7.70
2023-02-16T00:53:53.953Z,7.70
2023-02-16T00:56:21.584Z,7.60
2023-02-16T00:58:50.637Z,7.70
2023-02-16T01:01:18.418Z,7.70
2023-02-16T01:03:47.846Z,7.70
2023-02-16T01:06:33.362Z,7.80
2023-02-16T01:09:29.514Z,7.80
2023-02-16T01:11:56.688Z,7.80
2023-02-16T01:14:23.582Z,7.80
2023-02-16T01:16:50.672Z,7.80
2023-02-16T01:19:17.658Z,7.80
2023-02-16T01:21:46.972Z,7.90
2023-02-16T01:24:15.024Z,7.90
2023-02-16T01:26:43.868Z,7.90
2023-02-16T01:29:17.736Z,7.80
2023-02-16T01:31:45.165Z,7.80
2023-02-16T01:34:12.136Z,7.80
2023-02-16T01:36:43.849Z,7.80
2023-02-16T01:39:13.273Z,7.80
2023-02-16T01:41:55.343Z,7.70
2023-02-16T01:44:28.202Z,7.70
2023-02-16T01:46:55.039Z,7.80
2023-02-16T01:49:22.497Z,7.80
2023-02-16T01:51:49.312Z,7.80
2023-02-16T01:54:29.237Z,7.80
2023-02-16T01:57:11.306Z,7.80
2023-02-16T01:59:44.128Z,7.80
2023-02-16T02:02:17.696Z,7.80
2023-02-16T02:05:05.910Z,7.70
2023-02-16T02:07:35.896Z,7.70
2023-02-16T02:10:14.005Z,7.70
2023-02-16T02:13:02.769Z,7.70
2023-02-16T02:15:31.698Z,7.70
2023-02-16T02:17:58.731Z,7.70
2023-02-16T02:20:50.310Z,7.70
2023-02-16T02:23:32.155Z,7.70
2023-02-16T02:26:02.288Z,7.70
2023-02-16T02:28:56.905Z,7.70
2023-02-16T02:31:46.766Z,7.60
2023-02-16T02:34:22.460Z,7.60
2023-02-16T02:37:02.113Z,7.60
2023-02-16T02:39:41.287Z,7.60
2023-02-16T02:42:14.729Z,7.60
2023-02-16T02:44:49.191Z,7.60
2023-02-16T02:47:16.169Z,7.50
2023-02-16T02:49:53.071Z,7.50
2023-02-16T02:52:20.975Z,7.50
2023-02-16T02:55:07.115Z,7.50
2023-02-16T02:57:58.899Z,7.40
2023-02-16T03:00:44.309Z,7.40
2023-02-16T03:03:17.430Z,7.40
2023-02-16T03:05:46.004Z,7.30
2023-02-16T03:08:14.774Z,7.30
2023-02-16T03:11:02.102Z,7.30
2023-02-16T03:13:33.640Z,7.20
2023-02-16T03:16:03.145Z,7.20
2023-02-16T03:18:49.868Z,7.20
2023-02-16T03:21:35.496Z,7.20
2023-02-16T03:24:22.367Z,7.10
2023-02-16T03:27:09.423Z,7.00
2023-02-16T03:29:37.198Z,7.00
2023-02-16T03:32:04.239Z,6.90
2023-02-16T03:34:31.978Z,6.90
2023-02-16T03:37:00.684Z,6.80
2023-02-16T03:39:28.327Z,6.80
2023-02-16T03:41:56.906Z,6.70
2023-02-16T03:44:27.506Z,6.70
2023-02-16T03:46:54.446Z,6.60
2023-02-16T03:49:21.494Z,6.60
2023-02-16T03:51:48.517Z,6.60
2023-02-16T03:54:15.573Z,6.50
2023-02-16T03:56:42.574Z,6.50
2023-02-16T03:59:09.525Z,6.50
2023-02-16T04:01:36.553Z,6.50
2023-02-16T04:04:04.846Z,6.40
2023-02-16T04:06:31.918Z,6.40
2023-02-16T04:09:00.724Z,6.40
2023-02-16T04:11:46.276Z,6.40
2023-02-16T04:14:14.074Z,6.40
2023-02-16T04:16:41.066Z,6.40
2023-02-16T04:19:08.062Z,6.30
2023-02-16T04:21:35.170Z,6.40
2023-02-16T04:24:02.809Z,6.40
2023-02-16T04:26:29.686Z,6.40
2023-02-16T04:28:56.611Z,6.40
2023-02-16T04:31:23.618Z,6.40
2023-02-16T04:33:50.573Z,6.30
2023-02-16T04:36:17.629Z,6.30
2023-02-16T04:38:44.590Z,6.30
2023-02-16T04:41:11.475Z,6.30
2023-02-16T04:43:39.192Z,6.30
2023-02-16T04:46:06.151Z,6.30
2023-02-16T04:48:33.107Z,6.30
2023-02-16T04:51:00.041Z,6.30
2023-02-16T04:53:26.981Z,6.20
2023-02-16T04:55:53.987Z,6.30
2023-02-16T04:58:20.960Z,6.30
2023-02-16T05:00:47.895Z,6.30
2023-02-16T05:03:14.834Z,6.20
2023-02-16T05:05:41.789Z,6.20
2023-02-16T05:08:08.773Z,6.30
2023-02-16T05:10:35.977Z,6.30
2023-02-16T05:13:21.294Z,6.30
2023-02-16T05:15:48.459Z,6.30
2023-02-16T05:18:15.679Z,6.30
2023-02-16T05:21:01.300Z,6.30
2023-02-16T05:23:28.351Z,6.30
2023-02-16T05:25:55.269Z,6.30
2023-02-16T05:28:22.239Z,6.30
2023-02-16T05:30:49.310Z,6.30
2023-02-16T05:33:16.436Z,6.20
2023-02-16T05:35:43.335Z,6.20
2023-02-16T05:38:10.210Z,6.20
2023-02-16T05:40:37.142Z,6.30
2023-02-16T05:43:04.063Z,6.30
2023-02-16T05:45:31.072Z,6.30
2023-02-16T05:47:57.987Z,6.30
2023-02-16T05:50:25.737Z,6.30
2023-02-16T05:52:52.803Z,6.30
2023-02-16T05:55:19.739Z,6.30
2023-02-16T05:57:46.808Z,6.30
2023-02-16T06:00:14.392Z,6.30
2023-02-16T06:02:41.440Z,6.30
2023-02-16T06:05:08.547Z,6.30
2023-02-16T06:07:35.457Z,6.30
2023-02-16T06:10:02.598Z,6.30
2023-02-16T06:12:30.801Z,6.30
2023-02-16T06:14:58.231Z,6.30
2023-02-16T06:17:25.176Z,6.20
2023-02-16T06:19:52.101Z,6.20
2023-02-16T06:22:19.020Z,6.30
2023-02-16T06:24:45.941Z,6.30
2023-02-16T06:27:12.890Z,6.30
2023-02-16T06:29:39.803Z,6.30
2023-02-16T06:32:06.813Z,6.40
2023-02-16T06:34:33.769Z,6.50
2023-02-16T06:37:00.721Z,6.70
2023-02-16T06:39:27.629Z,6.80
2023-02-16T06:41:54.552Z,6.90
2023-02-16T06:44:21.477Z,7.00
2023-02-16T06:46:48.704Z,7.10
2023-02-16T06:49:18.773Z,7.10
2023-02-16T06:51:47.010Z,7.30
2023-02-16T06:54:14.647Z,7.40
2023-02-16T06:56:42.500Z,7.50
2023-02-16T06:59:11.170Z,7.70
2023-02-16T07:01:38.776Z,7.90
2023-02-16T07:04:05.756Z,8.20
2023-02-16T07:06:32.708Z,8.60
2023-02-16T07:09:00.277Z,8.90
2023-02-16T07:11:27.202Z,9.20
2023-02-16T07:13:54.138Z,9.40
2023-02-16T07:16:21.422Z,9.70
2023-02-16T07:18:48.569Z,10.10
2023-02-16T07:21:15.813Z,10.50
2023-02-16T07:23:43.255Z,10.60
2023-02-16T07:26:10.450Z,10.50
2023-02-16T07:28:37.579Z,10.60
2023-02-16T07:31:11.522Z,10.70
2023-02-16T07:33:38.947Z,10.70
2023-02-16T07:36:07.118Z,10.60
2023-02-16T07:38:34.005Z,10.50
2023-02-16T07:41:00.854Z,10.50
2023-02-16T07:43:27.962Z,10.50
2023-02-16T07:45:54.995Z,10.50
2023-02-16T07:48:22.221Z,10.80
2023-02-16T07:50:49.053Z,11.00
2023-02-16T07:53:15.834Z,11.20
2023-02-16T07:55:43.953Z,11.40
2023-02-16T07:58:11.243Z,11.60
2023-02-16T08:00:53.923Z,11.80
2023-02-16T08:03:24.635Z,12.00
2023-02-16T08:05:51.698Z,12.30
2023-02-16T08:08:18.613Z,12.70
2023-02-16T08:10:51.573Z,13.30
2023-02-16T08:13:20.602Z,14.00
2023-02-16T08:15:49.346Z,14.60
2023-02-16T08:18:47.509Z,15.20
2023-02-16T08:21:24.291Z,15.70
2023-02-16T08:24:01.632Z,16.00
2023-02-16T08:26:37.817Z,16.60
2023-02-16T08:29:06.021Z,17.20
2023-02-16T08:31:35.242Z,17.70
2023-02-16T08:34:03.885Z,18.30
2023-02-16T08:36:36.467Z,18.90
2023-02-16T08:39:07.252Z,19.60
2023-02-16T08:41:36.555Z,20.00
2023-02-16T08:44:05.245Z,20.30
2023-02-16T08:46:34.193Z,20.70
2023-02-16T08:49:04.693Z,21.00
2023-02-16T08:51:32.757Z,21.20
2023-02-16T08:54:00.274Z,21.40
2023-02-16T08:56:29.750Z,21.70
2023-02-16T08:58:57.310Z,22.20
2023-02-16T09:01:24.492Z,22.20
2023-02-16T09:03:51.693Z,21.70
2023-02-16T09:06:22.704Z,21.20
2023-02-16T09:08:53.120Z,20.90
2023-02-16T09:11:20.753Z,20.90
2023-02-16T09:13:47.911Z,20.80
2023-02-16T09:16:16.961Z,20.70
2023-02-16T09:18:47.314Z,20.60
2023-02-16T09:21:19.475Z,20.20
2023-02-16T09:23:48.192Z,19.90
2023-02-16T09:26:16.559Z,19.70
2023-02-16T09:28:43.737Z,19.70
2023-02-16T09:31:15.220Z,19.70
2023-02-16T09:33:42.607Z,19.50
2023-02-16T09:36:10.545Z,19.40
2023-02-16T09:38:39.604Z,19.50
2023-02-16T09:41:08.943Z,19.60
2023-02-16T09:43:37.020Z,19.90
2023-02-16T09:46:05.385Z,20.30
2023-02-16T09:48:42.886Z,20.70
2023-02-16T09:51:11.585Z,20.90
2023-02-16T09:53:40.375Z,21.20
2023-02-16T09:56:20.203Z,21.60
2023-02-16T09:59:07.323Z,21.80
2023-02-16T10:01:50.834Z,21.70
2023-02-16T10:04:23.851Z,21.50
2023-02-16T10:06:58.387Z,21.10
2023-02-16T10:09:27.296Z,20.90
2023-02-16T10:12:00.315Z,21.00
2023-02-16T10:14:37.536Z,20.80
2023-02-16T10:17:20.603Z,21.10
2023-02-16T10:19:57.443Z,21.50
2023-02-16T10:22:31.109Z,21.90
2023-02-16T10:25:00.906Z,22.00
2023-02-16T10:27:33.037Z,22.10
2023-02-16T10:29:59.887Z,22.10
2023-02-16T10:32:29.290Z,22.10
2023-02-16T10:35:04.693Z,21.90
2023-02-16T10:37:43.388Z,21.70
2023-02-16T10:40:12.929Z,21.10
2023-02-16T10:42:46.536Z,20.70
2023-02-16T10:45:13.362Z,20.60
2023-02-16T10:47:41.850Z,20.50
2023-02-16T10:50:19.215Z,20.50
2023-02-16T10:52:46.064Z,20.30
2023-02-16T10:55:13.152Z,20.20
2023-02-16T10:57:40.577Z,20.00
2023-02-16T11:00:11.588Z,19.80
2023-02-16T11:02:42.664Z,20.00
2023-02-16T11:05:28.036Z,20.40
2023-02-16T11:07:57.051Z,21.20
2023-02-16T11:10:38.409Z,21.50
2023-02-16T11:13:05.812Z,21.70
2023-02-16T11:15:32.926Z,22.30
2023-02-16T11:18:04.887Z,23.20
2023-02-16T11:20:31.961Z,24.10
2023-02-16T11:23:22.866Z,24.40
2023-02-16T11:26:00.639Z,24.30
2023-02-16T11:28:32.055Z,24.10
2023-02-16T11:31:05.288Z,23.90
2023-02-16T11:33:32.707Z,23.80
2023-02-16T11:36:02.432Z,23.90
2023-02-16T11:38:29.308Z,23.80
2023-02-16T11:40:57.144Z,23.70
2023-02-16T11:43:26.200Z,23.70
2023-02-16T11:45:57.526Z,24.00
2023-02-16T11:48:29.589Z,24.50
2023-02-16T11:50:58.270Z,24.90
2023-02-16T11:53:29.376Z,25.30
2023-02-16T11:56:25.532Z,25.50
2023-02-16T11:59:12.786Z,25.40
2023-02-16T12:01:58.452Z,25.50
2023-02-16T12:04:48.973Z,25.70
2023-02-16T12:07:16.521Z,25.70
2023-02-16T12:09:52.380Z,25.70
2023-02-16T12:12:33.841Z,25.90
2023-02-16T12:15:06.968Z,25.90
2023-02-16T12:17:33.815Z,25.90
2023-02-16T12:20:12.929Z,25.70
2023-02-16T12:22:43.284Z,25.90
2023-02-16T12:25:18.781Z,26.00
2023-02-16T12:27:50.154Z,26.10
2023-02-16T12:30:25.435Z,26.10
2023-02-16T12:33:11.478Z,26.10
2023-02-16T12:36:17.253Z,26.20
2023-02-16T12:38:44.057Z,25.60
2023-02-16T12:41:23.536Z,24.80
2023-02-16T12:43:55.527Z,24.90
2023-02-16T12:46:24.001Z,25.10
2023-02-16T12:48:53.896Z,25.20
2023-02-16T12:51:22.648Z,24.90
2023-02-16T12:53:53.418Z,25.00
2023-02-16T12:56:28.553Z,25.20
2023-02-16T12:59:00.577Z,25.00
2023-02-16T13:01:29.681Z,24.80
2023-02-16T13:03:58.572Z,24.70
2023-02-16T13:06:25.518Z,24.50
2023-02-16T13:08:57.552Z,24.60
2023-02-16T13:11:34.784Z,24.90
2023-02-16T13:14:05.100Z,25.10
2023-02-16T13:16:44.207Z,25.20
2023-02-16T13:19:12.479Z,25.10
2023-02-16T13:21:50.439Z,24.40
2023-02-16T13:24:30.922Z,24.30
2023-02-16T13:27:21.016Z,24.50
2023-02-16T13:29:48.050Z,24.70
2023-02-16T13:32:30.100Z,24.70
2023-02-16T13:35:08.886Z,24.40
2023-02-16T13:37:56.358Z,24.10
2023-02-16T13:40:42.712Z,23.80
2023-02-16T13:43:30.118Z,23.50
2023-02-16T13:45:57.029Z,23.30
2023-02-16T13:48:29.628Z,23.10
2023-02-16T13:50:58.509Z,23.20
2023-02-16T13:53:25.752Z,23.20
2023-02-16T13:56:12.509Z,23.00
2023-02-16T13:58:40.838Z,22.60
2023-02-16T14:01:26.308Z,22.00
2023-02-16T14:03:53.121Z,21.70
2023-02-16T14:06:26.885Z,22.00
2023-02-16T14:09:21.275Z,22.30
2023-02-16T14:11:54.518Z,22.40
2023-02-16T14:14:36.736Z,21.90
2023-02-16T14:17:18.626Z,21.00
2023-02-16T14:19:54.502Z,20.20
2023-02-16T14:22:23.207Z,20.00
2023-02-16T14:24:54.847Z,20.10
2023-02-16T14:27:40.564Z,20.50
2023-02-16T14:30:20.095Z,20.70
2023-02-16T14:32:52.682Z,20.60
2023-02-16T14:35:28.252Z,20.70
2023-02-16T14:37:55.035Z,20.70
2023-02-16T14:40:42.127Z,20.80
2023-02-16T14:43:24.598Z,20.70
2023-02-16T14:46:10.336Z,20.60
2023-02-16T14:48:46.433Z,20.50
2023-02-16T14:51:22.806Z,20.20
2023-02-16T14:53:55.646Z,20.10
2023-02-16T14:56:35.216Z,20.10
2023-02-16T14:59:04.747Z,20.20
2023-02-16T15:01:39.319Z,20.20
2023-02-16T15:04:06.691Z,20.10
2023-02-16T15:06:51.450Z,20.10
2023-02-16T15:09:23.536Z,19.80
2023-02-16T15:12:11.145Z,19.50
2023-02-16T15:14:42.893Z,19.40
2023-02-16T15:17:10.298Z,19.30
2023-02-16T15:19:37.432Z,19.10
2023-02-16T15:22:07.961Z,18.80
2023-02-16T15:24:34.786Z,18.40
2023-02-16T15:27:02.836Z,18.20
2023-02-16T15:29:29.804Z,17.80
2023-02-16T15:31:58.702Z,17.30
2023-02-16T15:34:28.394Z,16.90
2023-02-16T15:36:55.681Z,16.40
2023-02-16T15:39:38.542Z,16.10
2023-02-16T15:42:30.348Z,15.80
2023-02-16T15:44:57.177Z,15.50
2023-02-16T15:47:25.508Z,15.20
2023-02-16T15:49:52.753Z,14.90
2023-02-16T15:52:35.812Z,14.70
2023-02-16T15:55:04.593Z,14.40
2023-02-16T15:57:32.628Z,14.20
2023-02-16T16:00:00.922Z,13.90
2023-02-16T16:02:38.483Z,13.80
2023-02-16T16:05:09.662Z,13.60
2023-02-16T16:07:41.493Z,13.50
2023-02-16T16:10:37.039Z,13.40
2023-02-16T16:13:21.480Z,13.30
2023-02-16T16:15:50.254Z,13.20
2023-02-16T16:18:39.393Z,13.10
2023-02-16T16:21:17.027Z,13.00
2023-02-16T16:24:04.549Z,12.80
2023-02-16T16:26:35.288Z,12.70
2023-02-16T16:29:03.658Z,12.50
2023-02-16T16:31:33.640Z,12.40
2023-02-16T16:34:10.225Z,12.20
2023-02-16T16:36:47.684Z,12.10
2023-02-16T16:39:17.572Z,11.90
2023-02-16T16:42:09.268Z,11.80
2023-02-16T16:44:36.142Z,11.60
2023-02-16T16:47:37.318Z,11.50
2023-02-16T16:50:30.297Z,11.30
2023-02-16T16:52:58.131Z,11.10
2023-02-16T16:55:28.400Z,11.00
2023-02-16T16:58:09.929Z,10.80
2023-02-16T17:00:39.027Z,10.70
2023-02-16T17:03:08.682Z,10.60
2023-02-16T17:05:38.359Z,10.40
2023-02-16T17:08:05.577Z,10.30
2023-02-16T17:10:32.575Z,10.30
2023-02-16T17:12:59.854Z,10.10
2023-02-16T17:15:32.813Z,10.10
2023-02-16T17:17:59.755Z,10.00
2023-02-16T17:20:26.827Z,9.90
2023-02-16T17:22:53.635Z,9.90
2023-02-16T17:25:20.421Z,9.90
2023-02-16T17:27:47.297Z,9.80
2023-02-16T17:30:14.437Z,9.80
2023-02-16T17:32:41.310Z,9.80
2023-02-16T17:35:08.300Z,9.80
2023-02-16T17:37:35.644Z,9.70
2023-02-16T17:40:03.999Z,9.70
2023-02-16T17:42:31.389Z,9.70
2023-02-16T17:44:58.247Z,9.70
2023-02-16T17:47:25.075Z,9.60
2023-02-16T17:49:51.981Z,9.60
2023-02-16T17:52:18.893Z,9.60
2023-02-16T17:54:45.889Z,9.50
2023-02-16T17:57:13.020Z,9.50
2023-02-16T17:59:42.163Z,9.50
2023-02-16T18:02:10.280Z,9.40
2023-02-16T18:04:40.856Z,9.40
2023-02-16T18:07:10.316Z,9.30
2023-02-16T18:09:37.157Z,9.30
2023-02-16T18:12:04.133Z,9.30
2023-02-16T18:14:30.982Z,9.20
2023-02-16T18:16:59.836Z,9.20
2023-02-16T18:19:27.214Z,9.20
2023-02-16T18:21:54.493Z,9.10
2023-02-16T18:24:21.691Z,9.10
2023-02-16T18:26:49.798Z,9.10
2023-02-16T18:29:16.955Z,9.10
2023-02-16T18:31:44.217Z,9.10
2023-02-16T18:34:11.064Z,9.00
2023-02-16T18:36:38.240Z,9.00
2023-02-16T18:39:05.742Z,8.90
2023-02-16T18:41:32.689Z,8.90
2023-02-16T18:43:59.581Z,8.90
2023-02-16T18:46:26.424Z,8.80
2023-02-16T18:48:53.292Z,8.80
2023-02-16T18:51:23.532Z,8.80
2023-02-16T18:53:50.325Z,8.80
2023-02-16T18:56:17.331Z,8.70
2023-02-16T18:58:44.158Z,8.70
2023-02-16T19:01:12.069Z,8.60
2023-02-16T19:03:39.123Z,8.60
2023-02-16T19:06:06.498Z,8.50
2023-02-16T19:08:33.436Z,8.50
2023-02-16T19:11:00.284Z,8.50
2023-02-16T19:13:27.142Z,8.50
2023-02-16T19:15:53.970Z,8.40
2023-02-16T19:18:20.866Z,8.40
2023-02-16T19:20:47.670Z,8.30
2023-02-16T19:23:14.480Z,8.30
2023-02-16T19:25:41.358Z,8.30
2023-02-16T19:28:08.212Z,8.30
2023-02-16T19:30:35.015Z,8.30
2023-02-16T19:33:01.895Z,8.20
2023-02-16T19:35:28.716Z,8.20
2023-02-16T19:37:55.920Z,8.20
2023-02-16T19:40:22.914Z,8.10
2023-02-16T19:42:49.810Z,8.10
2023-02-16T19:45:16.653Z,8.00
2023-02-16T19:47:43.453Z,8.00
2023-02-16T19:50:10.423Z,8.00
2023-02-16T19:52:37.256Z,8.00
2023-02-16T19:55:04.132Z,7.90
2023-02-16T19:57:31.247Z,7.90
2023-02-16T19:59:58.067Z,7.80
2023-02-16T20:02:24.947Z,7.80
2023-02-16T20:04:53.286Z,7.80
2023-02-16T20:07:20.077Z,7.80
2023-02-16T20:09:46.884Z,7.80
2023-02-16T20:12:13.792Z,7.70
2023-02-16T20:14:40.597Z,7.70
2023-02-16T20:17:07.416Z,7.70
2023-02-16T20:19:34.256Z,7.70
2023-02-16T20:22:01.150Z,7.70
2023-02-16T20:24:27.961Z,7.60
2023-02-16T20:26:54.954Z,7.60
2023-02-16T20:29:22.151Z,7.60
2023-02-16T20:31:50.942Z,7.60
2023-02-16T20:34:19.199Z,7.60
2023-02-16T20:36:46.052Z,7.60
2023-02-16T20:39:13.500Z,7.60
2023-02-16T20:41:41.377Z,7.60
2023-02-16T20:44:08.639Z,7.50
2023-02-16T20:46:35.616Z,7.50
2023-02-16T20:49:04.175Z,7.50
2023-02-16T20:51:31.137Z,7.50
2023-02-16T20:54:01.328Z,7.50
2023-02-16T20:56:28.573Z,7.50
2023-02-16T20:58:56.122Z,7.50
2023-02-16T21:01:24.936Z,7.50
2023-02-16T21:03:52.388Z,7.50
2023-02-16T21:06:19.601Z,7.60
2023-02-16T21:08:46.608Z,7.60
2023-02-16T21:11:13.769Z,7.60
2023-02-16T21:13:41.351Z,7.60
2023-02-16T21:16:08.990Z,7.60
2023-02-16T21:18:36.611Z,7.60
2023-02-16T21:21:04.694Z,7.60
2023-02-16T21:23:31.600Z,7.60
2023-02-16T21:26:02.750Z,7.60
2023-02-16T21:28:29.867Z,7.60
2023-02-16T21:30:56.741Z,7.70
2023-02-16T21:33:23.604Z,7.70
2023-02-16T21:35:50.378Z,7.80
2023-02-16T21:38:17.796Z,7.80
2023-02-16T21:41:03.448Z,7.80
2023-02-16T21:43:30.273Z,7.90
2023-02-16T21:46:00.922Z,7.90
2023-02-16T21:48:46.828Z,7.90
2023-02-16T21:51:15.113Z,7.80
2023-02-16T21:53:41.983Z,7.80
2023-02-16T21:56:17.736Z,7.80
2023-02-16T21:58:44.606Z,7.80
2023-02-16T22:01:11.508Z,7.80
2023-02-16T22:03:38.591Z,7.80
2023-02-16T22:06:07.431Z,7.80
2023-02-16T22:08:36.839Z,7.80
2023-02-16T22:11:04.646Z,7.80
2023-02-16T22:13:31.588Z,7.80
2023-02-16T22:15:58.361Z,7.80
2023-02-16T22:18:25.120Z,7.80
2023-02-16T22:20:51.989Z,7.80
2023-02-16T22:23:18.843Z,7.80
2023-02-16T22:25:45.735Z,7.80
2023-02-16T22:28:12.519Z,7.90
2023-02-16T22:30:39.374Z,7.80
2023-02-16T22:33:06.223Z,7.80
2023-02-16T22:35:33.451Z,7.80
2023-02-16T22:38:00.247Z,7.80
2023-02-16T22:40:27.100Z,7.80
2023-02-16T22:42:53.956Z,7.80
2023-02-16T22:45:20.738Z,7.80
2023-02-16T22:47:47.618Z,7.90
2023-02-16T22:50:14.392Z,7.90
2023-02-16T22:52:41.331Z,8.00
2023-02-16T22:55:08.395Z,8.10
2023-02-16T22:57:35.850Z,8.20
2023-02-16T23:00:04.878Z,8.20
2023-02-16T23:02:32.318Z,8.30
2023-02-16T23:05:00.541Z,8.30
2023-02-16T23:07:27.456Z,8.40
2023-02-16T23:09:54.248Z,8.40
2023-02-16T23:12:21.047Z,8.40
2023-02-16T23:14:47.920Z,8.50
2023-02-16T23:17:14.696Z,8.50
2023-02-16T23:19:41.585Z,8.40
2023-02-16T23:22:08.396Z,8.40
2023-02-16T23:24:36.288Z,8.40
2023-02-16T23:27:03.117Z,8.40
2023-02-16T23:29:30.181Z,8.30
2023-02-16T23:31:57.070Z,8.20
2023-02-16T23:34:23.933Z,8.20
2023-02-16T23:36:50.796Z,8.20
2023-02-16T23:39:18.169Z,8.20
2023-02-16T23:41:45.404Z,8.20
2023-02-16T23:44:13.453Z,8.30
2023-02-16T23:46:40.246Z,8.30
2023-02-16T23:49:07.552Z,8.30
2023-02-16T23:51:34.357Z,8.30
2023-02-16T23:54:01.239Z,8.20
2023-02-16T23:56:28.616Z,8.30
2023-02-16T23:59:01.305Z,8.30
